DW8834 Weather Reports


Display with metric or nautical units.
time (UTC)temp
F
wind
direction
speed
MPH
gust
MPH
rain 1hr
in
rain 24hr
in
rain mn
in
humidity
%
barometer
mb
20210625041122 55 68 0.0 0.0 0.00 0.00 0.00 97 1023.4
20210625040122 55 45 0.0 0.0 0.00 0.00 0.00 98 1023.2
20210625035122 56 90 0.0 0.0 0.00 0.00 0.00 96 1023.2
20210625034121 56 90 0.0 0.0 0.00 0.00 0.00 96 1023.3
20210625033122 56 68 0.0 0.0 0.00 0.00 0.00 96 1023.2
20210625032121 57 90 0.0 0.0 0.00 0.00 0.00 95 1023.2
20210625031122 57 68 0.0 0.0 0.00 0.00 0.00 94 1023.4
20210625030122 57 68 0.0 0.0 0.00 0.00 0.00 94 1023.3
20210625025121 57 45 0.0 0.0 0.00 0.00 0.00 93 1023.3
20210625024122 57 45 0.0 0.0 0.00 0.00 0.00 93 1023.1
20210625023122 58 23 0.0 0.0 0.00 0.00 0.00 94 1023.2
20210625022122 58 90 0.0 0.0 0.00 0.00 0.00 93 1023.2
20210625021122 58 90 0.0 0.0 0.00 0.00 0.00 92 1023.1
20210625020122 59 90 0.0 0.0 0.00 0.00 0.00 91 1023.5
20210625015122 59 90 0.0 0.0 0.00 0.00 0.00 90 1023.5
20210625014122 60 90 0.0 0.0 0.00 0.00 0.00 89 1023.5
20210625013121 60 90 0.0 0.0 0.00 0.00 0.00 90 1023.2
20210625012121 61 90 0.0 0.0 0.00 0.00 0.00 87 1023.2
20210625011122 61 90 0.0 0.0 0.00 0.00 0.00 87 1023.1
20210625010121 62 23 0.0 0.0 0.00 0.00 0.00 84 1023.0
20210625005121 63 90 0.0 0.0 0.00 0.00 0.00 81 1023.0
20210625004121 64 90 0.0 0.0 0.00 0.00 0.00 77 1023.1
20210625003123 65 90 0.0 0.0 0.00 0.00 0.00 74 1022.9
20210625002122 66 90 0.0 0.0 0.00 0.00 0.00 74 1023.1
20210625001122 68 45 0.0 0.0 0.00 0.00 0.00 68 1023.1
20210625000122 69 90 0.0 0.0 0.00 0.00 0.00 65 1023.2
20210624235121 69 107 0.0 2.0 0.00 0.00 0.00 62 1023.2
20210624234121 71 65 1.0 2.0 0.00 0.00 0.00 59 1022.9
20210624233122 74 90 0.0 2.0 0.00 0.00 0.00 54 1022.5
20210624232122 75 90 0.0 2.0 0.00 0.00 0.00 52 1022.5
20210624231122 76 68 1.0 3.0 0.00 0.00 0.00 50 1022.2
20210624230122 75 94 1.0 3.0 0.00 0.00 0.00 49 1022.2
20210624225122 75 83 2.0 4.0 0.00 0.00 0.00 47 1022.2
20210624224122 76 74 1.0 3.0 0.00 0.00 0.00 48 1022.3
20210624223122 76 60 1.0 3.0 0.00 0.00 0.00 48 1022.4
20210624222122 77 73 2.0 4.0 0.00 0.00 0.00 45 1022.4
20210624221122 77 92 1.0 3.0 0.00 0.00 0.00 48 1022.4
20210624220122 77 91 2.0 3.0 0.00 0.00 0.00 48 1022.2
20210624215122 75 91 2.0 4.0 0.00 0.00 0.00 49 1022.2
20210624214122 75 95 2.0 3.0 0.00 0.00 0.00 51 1022.4
20210624213122 75 72 2.0 4.0 0.00 0.00 0.00 52 1022.4
20210624212122 76 82 1.0 3.0 0.00 0.00 0.00 50 1022.4
20210624211122 76 55 2.0 4.0 0.00 0.00 0.00 48 1022.4
20210624210122 76 76 2.0 4.0 0.00 0.00 0.00 48 1022.5
20210624205122 76 70 2.0 6.0 0.00 0.00 0.00 49 1022.5
20210624204121 76 135 2.0 5.0 0.00 0.00 0.00 50 1022.3
20210624203122 77 99 2.0 4.0 0.00 0.00 0.00 50 1022.5
20210624202122 77 129 2.0 4.0 0.00 0.00 0.00 47 1022.8
20210624201122 77 134 2.0 4.0 0.00 0.00 0.00 47 1023.1
20210624200122 77 59 2.0 3.0 0.00 0.00 0.00 47 1023.2
20210624195123 77 85 2.0 4.0 0.00 0.00 0.00 44 1023.2
20210624194121 77 146 1.0 4.0 0.00 0.00 0.00 47 1023.7
20210624193121 77 76 2.0 4.0 0.00 0.00 0.00 44 1023.8
20210624192122 78 45 2.0 4.0 0.00 0.00 0.00 46 1024.0
20210624191122 76 67 2.0 4.0 0.00 0.00 0.00 47 1024.1
20210624190121 76 63 2.0 5.0 0.00 0.00 0.00 48 1024.2
20210624185122 75 84 1.0 4.0 0.00 0.00 0.00 48 1024.2
20210624184121 77 59 2.0 4.0 0.00 0.00 0.00 46 1024.4
20210624183122 75 79 1.0 4.0 0.00 0.00 0.00 47 1024.6
20210624182122 77 114 2.0 4.0 0.00 0.00 0.00 46 1024.4
20210624181122 76 77 2.0 5.0 0.00 0.00 0.00 49 1024.3
20210624180122 78 119 3.0 6.0 0.00 0.00 0.00 47 1024.5
20210624175122 77 160 3.0 7.0 0.00 0.00 0.00 49 1024.5
20210624174122 77 68 2.0 5.0 0.00 0.00 0.00 49 1024.8
20210624173122 77 65 3.0 5.0 0.00 0.00 0.00 48 1024.8
20210624172122 77 66 3.0 5.0 0.00 0.00 0.00 49 1025.0
20210624171122 76 141 2.0 4.0 0.00 0.00 0.00 51 1025.2
20210624170123 76 82 2.0 5.0 0.00 0.00 0.00 50 1025.4
20210624165122 76 105 3.0 5.0 0.00 0.00 0.00 51 1025.4
20210624164121 75 88 2.0 4.0 0.00 0.00 0.00 48 1025.6
20210624163123 76 155 2.0 5.0 0.00 0.00 0.00 47 1025.8
20210624162122 77 99 2.0 5.0 0.00 0.00 0.00 49 1025.7
20210624161122 76 111 2.0 4.0 0.00 0.00 0.00 51 1025.5
20210624160122 75 79 3.0 6.0 0.00 0.00 0.00 48 1025.5
20210624155122 75 140 3.0 6.0 0.00 0.00 0.00 49 1025.5
20210624154122 74 112 2.0 4.0 0.00 0.00 0.00 52 1025.3
20210624153123 74 86 3.0 5.0 0.00 0.00 0.00 53 1025.4
20210624152122 73 66 3.0 5.0 0.00 0.00 0.00 54 1025.4
20210624151122 73 78 2.0 4.0 0.00 0.00 0.00 56 1025.2
20210624150122 73 122 2.0 6.0 0.00 0.00 0.00 58 1025.0
20210624145122 72 106 2.0 4.0 0.00 0.00 0.00 56 1025.0
20210624144122 71 91 2.0 4.0 0.00 0.00 0.00 56 1025.4
20210624143122 71 88 2.0 4.0 0.00 0.00 0.00 61 1025.3
20210624142122 71 114 2.0 4.0 0.00 0.00 0.00 62 1025.4
20210624141122 70 111 1.0 3.0 0.00 0.00 0.00 63 1025.2
20210624140121 69 87 1.0 3.0 0.00 0.00 0.00 67 1025.2
20210624135122 68 142 0.0 3.0 0.00 0.00 0.00 68 1025.2
20210624134122 67 82 0.0 2.0 0.00 0.00 0.00 73 1025.3
20210624133122 66 67 1.0 3.0 0.00 0.00 0.00 79 1025.3
20210624132122 64 90 0.0 3.0 0.00 0.00 0.00 90 1025.3
20210624131122 63 113 0.0 0.0 0.00 0.00 0.00 93 1025.5
20210624130122 62 90 0.0 0.0 0.00 0.00 0.00 99 1025.5
20210624125122 61 113 0.0 0.0 0.00 0.00 0.00 99 1025.5
20210624124122 60 90 0.0 0.0 0.00 0.00 0.00 99 1025.5
20210624123122 59 158 0.0 0.0 0.00 0.00 0.00 99 1025.4
20210624122122 59 158 0.0 0.0 0.00 0.00 0.00 99 1025.4
20210624121122 58 158 0.0 0.0 0.00 0.00 0.00 99 1025.3
20210624120122 57 158 0.0 0.0 0.00 0.00 0.00 99 1025.1
20210624115122 55 158 0.0 0.0 0.00 0.00 0.00 99 1025.1
20210624114122 54 158 0.0 0.0 0.00 0.00 0.00 99 1025.1
20210624113122 54 158 0.0 0.0 0.00 0.00 0.00 99 1025.0
20210624112122 53 158 0.0 0.0 0.00 0.00 0.00 99 1024.9
20210624111122 52 158 0.0 0.0 0.00 0.00 0.00 99 1025.0
20210624110122 51 158 0.0 0.0 0.00 0.00 0.00 99 1024.9
20210624105122 51 158 0.0 0.0 0.00 0.00 0.00 99 1024.9
20210624104122 51 158 0.0 0.0 0.00 0.00 0.00 99 1024.8
20210624103122 50 158 0.0 0.0 0.00 0.00 0.00 99 1024.6
20210624102122 50 158 0.0 0.0 0.00 0.00 0.00 99 1024.3
20210624101122 50 113 0.0 0.0 0.00 0.00 0.00 99 1024.3
20210624100122 50 113 0.0 0.0 0.00 0.00 0.00 99 1024.0
20210624095121 50 113 0.0 0.0 0.00 0.00 0.00 99 1024.0
20210624094122 50 113 0.0 0.0 0.00 0.00 0.00 99 1023.9
20210624093122 50 90 0.0 0.0 0.00 0.00 0.00 99 1023.9
20210624092123 50 113 0.0 0.0 0.00 0.00 0.00 99 1023.8
20210624091122 50 113 0.0 0.0 0.00 0.00 0.00 99 1023.8
20210624090122 51 113 0.0 0.0 0.00 0.00 0.00 99 1023.6
20210624085122 51 113 0.0 0.0 0.00 0.00 0.00 99 1023.6
20210624084122 51 113 0.0 0.0 0.00 0.00 0.00 99 1023.7
20210624083122 51 113 0.0 0.0 0.00 0.00 0.00 99 1023.7
20210624082122 51 113 0.0 0.0 0.00 0.00 0.00 99 1023.8
20210624081121 51 158 0.0 0.0 0.00 0.00 0.00 99 1023.6
20210624080122 51 158 0.0 0.0 0.00 0.00 0.00 99 1023.7
20210624075122 51 158 0.0 0.0 0.00 0.00 0.00 99 1023.7
20210624074122 51 158 0.0 0.0 0.00 0.00 0.00 99 1023.6
20210624073122 51 113 0.0 0.0 0.00 0.00 0.00 99 1023.5
20210624072122 51 135 0.0 0.0 0.00 0.00 0.00 99 1023.3
20210624071123 52 113 0.0 0.0 0.00 0.00 0.00 99 1023.3
20210624070122 52 113 0.0 0.0 0.00 0.00 0.00 99 1023.3
20210624065122 52 113 0.0 0.0 0.00 0.00 0.00 99 1023.3
20210624064122 52 113 0.0 0.0 0.00 0.00 0.00 99 1023.2
20210624063122 52 113 0.0 0.0 0.00 0.00 0.00 99 1023.1
20210624062123 52 135 0.0 0.0 0.00 0.00 0.00 99 1023.3
20210624061122 52 135 0.0 0.0 0.00 0.00 0.00 99 1023.3
20210624060122 53 113 0.0 0.0 0.00 0.00 0.00 99 1023.3
20210624055122 53 113 0.0 0.0 0.00 0.00 0.00 99 1023.3
20210624054121 53 113 0.0 0.0 0.00 0.00 0.00 99 1023.2
20210624053122 53 113 0.0 0.0 0.00 0.00 0.00 99 1023.3
20210624052122 53 113 0.0 0.0 0.00 0.00 0.00 98 1023.1
20210624051122 53 113 0.0 0.0 0.00 0.00 0.00 98 1023.2
20210624050122 53 135 0.0 0.0 0.00 0.00 0.00 98 1023.0
20210624045122 53 113 0.0 0.0 0.00 0.00 0.00 98 1023.0
20210624044122 54 113 0.0 0.0 0.00 0.00 0.00 98 1023.1
20210624043122 54 113 0.0 0.0 0.00 0.00 0.00 98 1023.0
20210624042122 54 113 0.0 0.0 0.00 0.00 0.00 97 1023.0